createdAt,value
2018-05-31T00:01:30.095Z,45.38
2018-05-31T00:03:57.738Z,44.88
2018-05-31T00:06:25.330Z,50.20
2018-05-31T00:08:54.529Z,50.60
2018-05-31T00:11:22.080Z,49.00
2018-05-31T00:13:49.979Z,49.10
2018-05-31T00:16:18.741Z,49.97
2018-05-31T00:18:46.464Z,50.47
2018-05-31T00:21:14.051Z,50.53
2018-05-31T00:23:43.056Z,51.00
2018-05-31T00:26:10.618Z,51.22
2018-05-31T00:28:38.948Z,51.47
2018-05-31T00:31:07.470Z,52.92
2018-05-31T00:33:37.726Z,51.70
2018-05-31T00:36:06.471Z,52.20
2018-05-31T00:38:34.063Z,52.25
2018-05-31T00:41:02.996Z,52.38
2018-05-31T00:43:30.971Z,53.63
2018-05-31T00:45:58.607Z,57.80
2018-05-31T00:48:26.163Z,56.78
2018-05-31T00:50:54.762Z,57.60
2018-05-31T00:53:23.039Z,57.67
2018-05-31T00:56:03.188Z,56.15
2018-05-31T00:58:32.897Z,61.05
2018-05-31T01:01:01.472Z,58.80
2018-05-31T01:03:29.875Z,57.55
2018-05-31T01:05:58.691Z,52.70
2018-05-31T01:08:28.675Z,54.28
2018-05-31T01:10:57.207Z,54.67
2018-05-31T01:13:25.368Z,53.60
2018-05-31T01:15:53.731Z,59.17
2018-05-31T01:18:21.559Z,57.47
2018-05-31T01:20:49.531Z,57.90
2018-05-31T01:23:17.980Z,54.92
2018-05-31T01:25:46.671Z,57.33
2018-05-31T01:28:14.212Z,58.63
2018-05-31T01:30:41.991Z,56.13
2018-05-31T01:33:09.582Z,56.88
2018-05-31T01:35:37.172Z,57.67
2018-05-31T01:38:16.558Z,58.58
2018-05-31T01:40:44.116Z,58.28
2018-05-31T01:43:11.744Z,57.83
2018-05-31T01:45:39.701Z,59.67
2018-05-31T01:48:07.746Z,59.75
2018-05-31T01:50:36.230Z,60.75
2018-05-31T01:53:03.838Z,62.80
2018-05-31T01:55:32.311Z,59.33
2018-05-31T01:58:00.635Z,60.20
2018-05-31T02:00:28.929Z,59.45
2018-05-31T02:02:57.796Z,58.80
2018-05-31T02:05:25.585Z,59.13
2018-05-31T02:07:53.185Z,60.25
2018-05-31T02:10:20.731Z,66.32
2018-05-31T02:12:48.878Z,59.95
2018-05-31T02:15:17.879Z,62.90
2018-05-31T02:17:46.358Z,61.42
2018-05-31T02:20:14.199Z,61.22
2018-05-31T02:22:41.820Z,61.33
2018-05-31T02:25:10.174Z,63.63
2018-05-31T02:27:37.791Z,64.28
2018-05-31T02:30:06.627Z,62.53
2018-05-31T02:32:35.295Z,63.05
2018-05-31T02:35:02.983Z,64.57
2018-05-31T02:37:31.369Z,63.08
2018-05-31T02:39:59.739Z,65.30
2018-05-31T02:42:27.386Z,65.68
2018-05-31T02:44:54.941Z,61.40
2018-05-31T02:47:22.826Z,64.18
2018-05-31T02:49:51.183Z,61.55
2018-05-31T02:52:19.603Z,65.87
2018-05-31T02:54:47.167Z,65.90
2018-05-31T02:57:14.750Z,61.22
2018-05-31T02:59:42.303Z,62.88
2018-05-31T03:02:09.835Z,60.88
2018-05-31T03:04:37.369Z,66.15
2018-05-31T03:07:04.939Z,66.22
2018-05-31T03:09:33.232Z,65.47
2018-05-31T03:12:01.110Z,62.55
2018-05-31T03:14:28.730Z,67.62
2018-05-31T03:16:56.655Z,63.10
2018-05-31T03:19:24.520Z,63.30
2018-05-31T03:21:53.099Z,66.05
2018-05-31T03:24:20.922Z,62.25
2018-05-31T03:26:48.840Z,64.55
2018-05-31T03:29:17.233Z,62.00
2018-05-31T03:31:44.823Z,61.90
2018-05-31T03:34:12.361Z,58.95
2018-05-31T03:36:39.950Z,59.53
2018-05-31T03:39:08.647Z,61.35
2018-05-31T03:41:36.480Z,56.92
2018-05-31T03:44:06.993Z,58.95
2018-05-31T03:46:35.683Z,58.70
2018-05-31T03:49:05.267Z,60.08
2018-05-31T03:51:32.878Z,60.30
2018-05-31T03:54:00.670Z,61.35
2018-05-31T03:56:29.864Z,59.25
2018-05-31T03:58:58.999Z,59.50
2018-05-31T04:01:28.614Z,57.67
2018-05-31T04:03:56.782Z,57.67
2018-05-31T04:06:25.107Z,57.72
2018-05-31T04:08:52.687Z,56.20
2018-05-31T04:11:20.221Z,56.10
2018-05-31T04:13:49.328Z,56.95
2018-05-31T04:16:17.202Z,55.83
2018-05-31T04:18:44.917Z,54.13
2018-05-31T04:21:12.499Z,54.72
2018-05-31T04:23:40.922Z,55.25
2018-05-31T04:26:08.695Z,49.40
2018-05-31T04:28:36.564Z,55.22
2018-05-31T04:31:04.225Z,55.58
2018-05-31T04:33:32.081Z,54.40
2018-05-31T04:35:59.638Z,53.03
2018-05-31T04:38:28.459Z,52.88
2018-05-31T04:40:56.004Z,53.20
2018-05-31T04:43:24.358Z,51.13
2018-05-31T04:45:52.023Z,50.12
2018-05-31T04:48:20.542Z,49.70
2018-05-31T04:50:49.123Z,51.35
2018-05-31T04:53:16.711Z,49.05
2018-05-31T04:55:45.903Z,49.30
2018-05-31T04:58:14.216Z,47.53
2018-05-31T05:00:41.785Z,49.28
2018-05-31T05:03:10.906Z,49.13
2018-05-31T05:05:38.579Z,49.00
2018-05-31T05:08:06.124Z,47.88
2018-05-31T05:10:34.811Z,47.25
2018-05-31T05:13:02.719Z,48.08
2018-05-31T05:15:31.019Z,43.40
2018-05-31T05:17:59.698Z,44.70
2018-05-31T05:20:27.570Z,46.17
2018-05-31T05:22:55.147Z,44.42
2018-05-31T05:25:23.591Z,44.10
2018-05-31T05:27:52.104Z,44.55
2018-05-31T05:30:19.676Z,43.78
2018-05-31T05:32:48.143Z,42.80
2018-05-31T05:35:17.167Z,42.90
2018-05-31T05:37:46.975Z,41.15
2018-05-31T05:40:14.558Z,40.88
2018-05-31T05:42:42.250Z,39.78
2018-05-31T05:45:09.787Z,41.70
2018-05-31T05:47:38.488Z,42.15
2018-05-31T05:50:06.071Z,40.78
2018-05-31T05:52:34.524Z,40.10
2018-05-31T05:55:04.072Z,38.35
2018-05-31T05:57:32.138Z,38.55
2018-05-31T06:00:00.507Z,36.85
2018-05-31T06:02:29.791Z,35.65
2018-05-31T06:04:57.532Z,32.78
2018-05-31T06:07:25.099Z,32.53
2018-05-31T06:09:52.649Z,32.92
2018-05-31T06:12:20.541Z,32.47
2018-05-31T06:14:48.987Z,29.30
2018-05-31T06:17:16.591Z,30.80
2018-05-31T06:19:44.230Z,29.65
2018-05-31T06:22:13.626Z,27.52
2018-05-31T06:24:42.128Z,25.45
2018-05-31T06:27:09.723Z,24.12
2018-05-31T06:29:37.279Z,23.60
2018-05-31T06:32:04.812Z,22.60
2018-05-31T06:34:33.106Z,22.35
2018-05-31T06:37:00.623Z,22.45
2018-05-31T06:39:29.595Z,22.73
2018-05-31T06:41:58.963Z,21.30
2018-05-31T06:44:27.068Z,21.60
2018-05-31T06:46:55.415Z,21.70
2018-05-31T06:49:22.939Z,21.15
2018-05-31T06:51:50.465Z,22.25
2018-05-31T06:54:18.038Z,20.75
2018-05-31T06:56:45.531Z,20.15
2018-05-31T06:59:13.064Z,20.17
2018-05-31T07:01:40.988Z,18.65
2018-05-31T07:04:08.536Z,18.58
2018-05-31T07:06:36.063Z,16.85
2018-05-31T07:09:04.111Z,17.05
2018-05-31T07:11:32.059Z,17.25
2018-05-31T07:13:59.578Z,17.73
2018-05-31T07:16:27.211Z,18.20
2018-05-31T07:18:55.133Z,19.23
2018-05-31T07:21:22.676Z,18.85
2018-05-31T07:23:50.193Z,18.98
2018-05-31T07:26:17.710Z,18.20
2018-05-31T07:28:45.236Z,18.50
2018-05-31T07:31:13.208Z,19.80
2018-05-31T07:33:40.783Z,17.42
2018-05-31T07:36:09.183Z,16.77
2018-05-31T07:38:36.924Z,17.80
2018-05-31T07:41:04.695Z,18.12
2018-05-31T07:43:32.803Z,19.95
2018-05-31T07:46:04.444Z,17.60
2018-05-31T07:48:32.163Z,21.12
2018-05-31T07:50:59.703Z,19.95
2018-05-31T07:53:29.293Z,19.37
2018-05-31T07:55:58.017Z,17.48
2018-05-31T07:58:27.271Z,19.65
2018-05-31T08:00:55.864Z,19.48
2018-05-31T08:03:24.344Z,19.23
2018-05-31T08:05:52.779Z,19.52
2018-05-31T08:08:20.315Z,26.42
2018-05-31T08:10:48.343Z,22.13
2018-05-31T08:13:15.867Z,18.20
2018-05-31T08:15:43.399Z,22.27
2018-05-31T08:18:10.925Z,21.50
2018-05-31T08:20:38.507Z,37.92
2018-05-31T08:23:06.019Z,20.37
2018-05-31T08:25:33.532Z,18.05
2018-05-31T08:28:01.072Z,20.75
2018-05-31T08:30:28.635Z,20.45
2018-05-31T08:32:56.155Z,19.65
2018-05-31T08:35:23.663Z,19.58
2018-05-31T08:37:51.190Z,20.75
2018-05-31T08:40:18.724Z,19.55
2018-05-31T08:42:46.531Z,19.95
2018-05-31T08:45:14.051Z,19.23
2018-05-31T08:47:41.576Z,17.70
2018-05-31T08:50:09.090Z,18.17
2018-05-31T08:52:36.612Z,18.27
2018-05-31T08:55:04.139Z,18.87
2018-05-31T08:57:31.662Z,17.50
2018-05-31T08:59:59.472Z,16.40
2018-05-31T09:02:26.998Z,16.55
2018-05-31T09:04:54.517Z,16.67
2018-05-31T09:07:22.032Z,15.40
2018-05-31T09:09:49.555Z,15.57
2018-05-31T09:12:17.074Z,15.38
2018-05-31T09:14:44.606Z,13.13
2018-05-31T09:17:12.138Z,17.98
2018-05-31T09:19:40.440Z,24.45
2018-05-31T09:22:07.987Z,18.65
2018-05-31T09:24:35.516Z,18.92
2018-05-31T09:27:03.051Z,13.25
2018-05-31T09:29:30.603Z,15.65
2018-05-31T09:31:58.479Z,14.40
2018-05-31T09:34:26.010Z,20.23
2018-05-31T09:36:54.205Z,28.40
2018-05-31T09:39:21.763Z,14.57
2018-05-31T09:41:49.353Z,13.15
2018-05-31T09:44:16.898Z,15.90
2018-05-31T09:46:45.182Z,33.15
2018-05-31T09:49:12.717Z,11.10
2018-05-31T09:51:40.253Z,36.97
2018-05-31T09:54:07.804Z,10.27
2018-05-31T09:56:35.339Z,10.48
2018-05-31T09:59:02.884Z,10.27
2018-05-31T10:01:30.422Z,11.25
2018-05-31T10:03:57.943Z,10.75
2018-05-31T10:06:25.458Z,11.23
2018-05-31T10:08:53.003Z,12.50
2018-05-31T10:11:20.521Z,9.98
2018-05-31T10:13:48.050Z,10.93
2018-05-31T10:16:15.561Z,9.60
2018-05-31T10:18:43.075Z,9.05
2018-05-31T10:21:10.591Z,10.30
2018-05-31T10:23:38.112Z,10.70
2018-05-31T10:26:05.623Z,11.25
2018-05-31T10:28:33.135Z,10.63
2018-05-31T10:31:00.681Z,10.32
2018-05-31T10:33:28.210Z,10.90
2018-05-31T10:35:55.725Z,10.32
2018-05-31T10:38:23.268Z,10.82
2018-05-31T10:40:50.787Z,11.45
2018-05-31T10:43:18.300Z,11.90
2018-05-31T10:45:45.892Z,11.90
2018-05-31T10:48:13.408Z,11.10
2018-05-31T10:50:40.929Z,10.98
2018-05-31T10:53:09.215Z,10.80
2018-05-31T10:55:36.736Z,11.65
2018-05-31T10:58:04.255Z,11.18
2018-05-31T11:00:31.778Z,11.82
2018-05-31T11:02:59.299Z,11.60
2018-05-31T11:05:26.813Z,13.18
2018-05-31T11:07:54.339Z,12.15
2018-05-31T11:10:21.854Z,18.23
2018-05-31T11:12:49.379Z,12.68
2018-05-31T11:15:16.919Z,14.20
2018-05-31T11:17:44.436Z,13.05
2018-05-31T11:20:12.000Z,13.38
2018-05-31T11:22:39.832Z,12.48
2018-05-31T11:25:07.394Z,12.23
2018-05-31T11:27:34.915Z,30.80
2018-05-31T11:30:02.491Z,15.77
2018-05-31T11:32:30.928Z,16.83
2018-05-31T11:34:58.452Z,15.77
2018-05-31T11:37:25.971Z,12.85
2018-05-31T11:39:53.494Z,16.30
2018-05-31T11:42:21.032Z,26.30
2018-05-31T11:44:49.347Z,28.17
2018-05-31T11:47:16.867Z,40.08
2018-05-31T11:49:44.383Z,11.07
2018-05-31T11:52:11.915Z,71.28
2018-05-31T11:54:39.452Z,28.48
2018-05-31T11:57:06.970Z,31.02
2018-05-31T11:59:34.507Z,17.98
2018-05-31T12:02:02.044Z,24.55
2018-05-31T12:04:29.577Z,11.95
2018-05-31T12:06:57.113Z,11.20
2018-05-31T12:09:24.631Z,11.23
2018-05-31T12:11:52.952Z,11.23
2018-05-31T12:14:20.462Z,11.48
2018-05-31T12:16:47.979Z,10.80
2018-05-31T12:19:15.506Z,11.20
2018-05-31T12:21:43.041Z,11.05
2018-05-31T12:24:10.576Z,10.85
2018-05-31T12:26:38.152Z,12.48
2018-05-31T12:29:05.664Z,10.38
2018-05-31T12:31:33.178Z,11.12
2018-05-31T12:34:00.695Z,9.43
2018-05-31T12:36:28.212Z,9.10
2018-05-31T12:38:56.499Z,11.48
2018-05-31T12:41:24.025Z,12.37
2018-05-31T12:43:51.543Z,9.98
2018-05-31T12:46:19.063Z,10.20
2018-05-31T12:48:47.339Z,9.50
2018-05-31T12:51:14.851Z,33.03
2018-05-31T12:53:42.379Z,15.18
2018-05-31T12:56:09.912Z,12.27
2018-05-31T12:58:38.212Z,10.13
2018-05-31T13:01:05.731Z,11.23
2018-05-31T13:03:33.255Z,27.75
2018-05-31T13:06:00.839Z,11.45
2018-05-31T13:08:28.346Z,11.88
2018-05-31T13:10:55.897Z,11.10
2018-05-31T13:13:23.422Z,12.07
2018-05-31T13:15:50.944Z,11.43
2018-05-31T13:18:18.699Z,20.95
2018-05-31T13:20:46.220Z,20.55
2018-05-31T13:23:13.753Z,11.70
2018-05-31T13:25:41.294Z,12.05
2018-05-31T13:28:09.431Z,12.10
2018-05-31T13:30:37.726Z,12.50
2018-05-31T13:33:05.271Z,11.23
2018-05-31T13:35:32.794Z,12.60
2018-05-31T13:38:00.334Z,11.48
2018-05-31T13:40:27.854Z,12.45
2018-05-31T13:42:55.399Z,10.95
2018-05-31T13:45:22.939Z,12.32
2018-05-31T13:47:50.494Z,11.07
2018-05-31T13:50:18.017Z,11.45
2018-05-31T13:52:45.581Z,10.65
2018-05-31T13:55:13.117Z,10.48
2018-05-31T13:57:40.632Z,10.65
2018-05-31T14:00:08.161Z,10.38
2018-05-31T14:02:35.684Z,10.13
2018-05-31T14:05:03.199Z,10.38
2018-05-31T14:07:30.723Z,9.85
2018-05-31T14:09:59.048Z,10.40
2018-05-31T14:12:26.608Z,11.10
2018-05-31T14:14:54.146Z,11.95
2018-05-31T14:17:22.584Z,10.18
2018-05-31T14:19:50.118Z,9.80
2018-05-31T14:22:17.635Z,10.57
2018-05-31T14:24:45.163Z,10.57
2018-05-31T14:27:12.699Z,11.35
2018-05-31T14:29:40.988Z,11.70
2018-05-31T14:32:08.528Z,13.13
2018-05-31T14:34:36.055Z,11.15
2018-05-31T14:37:03.579Z,12.40
2018-05-31T14:39:31.107Z,11.68
2018-05-31T14:41:58.658Z,12.10
2018-05-31T14:44:26.234Z,14.75
2018-05-31T14:46:53.791Z,14.98
2018-05-31T14:49:22.204Z,14.07
2018-05-31T14:51:50.943Z,12.70
2018-05-31T14:54:19.455Z,12.10
2018-05-31T14:56:47.947Z,14.32
2018-05-31T14:59:16.399Z,11.12
2018-05-31T15:01:44.639Z,11.75
2018-05-31T15:04:12.447Z,11.75
2018-05-31T15:06:39.970Z,13.88
2018-05-31T15:09:08.855Z,11.55
2018-05-31T15:11:36.375Z,12.07
2018-05-31T15:14:05.287Z,48.17
2018-05-31T15:16:32.811Z,26.27
2018-05-31T15:19:00.351Z,24.37
2018-05-31T15:21:28.107Z,25.37
2018-05-31T15:23:57.006Z,24.00
2018-05-31T15:26:24.555Z,23.15
2018-05-31T15:28:52.112Z,21.50
2018-05-31T15:31:22.464Z,19.00
2018-05-31T15:33:50.891Z,22.77
2018-05-31T15:36:19.287Z,24.90
2018-05-31T15:38:47.605Z,26.67
2018-05-31T15:41:16.181Z,22.60
2018-05-31T15:43:44.531Z,26.75
2018-05-31T15:46:12.295Z,22.27
2018-05-31T15:48:40.339Z,18.83
2018-05-31T15:51:08.776Z,20.73
2018-05-31T15:53:36.850Z,21.73
2018-05-31T15:56:04.641Z,20.73
2018-05-31T15:58:34.071Z,20.83
2018-05-31T16:01:02.766Z,20.27
2018-05-31T16:03:30.569Z,19.85
2018-05-31T16:05:58.095Z,20.37
2018-05-31T16:08:26.484Z,20.40
2018-05-31T16:10:55.731Z,20.15
2018-05-31T16:13:23.539Z,20.62
2018-05-31T16:15:51.880Z,18.67
2018-05-31T16:18:19.404Z,18.10
2018-05-31T16:20:46.972Z,16.40
2018-05-31T16:23:14.579Z,17.35
2018-05-31T16:25:43.053Z,15.70
2018-05-31T16:28:11.400Z,15.38
2018-05-31T16:30:38.959Z,15.95
2018-05-31T16:33:06.807Z,15.02
2018-05-31T16:35:35.850Z,15.55
2018-05-31T16:38:03.399Z,14.80
2018-05-31T16:40:30.947Z,15.85
2018-05-31T16:42:59.407Z,16.23
2018-05-31T16:45:26.959Z,13.07
2018-05-31T16:47:55.432Z,14.10
2018-05-31T16:50:22.975Z,12.88
2018-05-31T16:52:50.498Z,15.05
2018-05-31T16:55:18.020Z,12.57
2018-05-31T16:57:45.601Z,12.20
2018-05-31T17:00:13.975Z,13.02
2018-05-31T17:02:42.763Z,12.45
2018-05-31T17:05:10.311Z,12.23
2018-05-31T17:07:38.665Z,13.07
2018-05-31T17:10:06.191Z,12.95
2018-05-31T17:12:33.771Z,12.00
2018-05-31T17:15:01.696Z,12.88
2018-05-31T17:17:30.043Z,13.05
2018-05-31T17:19:57.566Z,12.82
2018-05-31T17:22:25.954Z,13.82
2018-05-31T17:24:53.524Z,14.45
2018-05-31T17:27:21.062Z,14.63
2018-05-31T17:29:48.599Z,14.05
2018-05-31T17:32:16.128Z,14.77
2018-05-31T17:34:44.438Z,15.45
2018-05-31T17:37:11.959Z,15.15
2018-05-31T17:39:39.482Z,15.80
2018-05-31T17:42:07.019Z,16.77
2018-05-31T17:44:34.553Z,16.20
2018-05-31T17:47:02.071Z,16.95
2018-05-31T17:49:29.587Z,17.50
2018-05-31T17:51:57.124Z,17.33
2018-05-31T17:54:24.661Z,17.98
2018-05-31T17:56:52.192Z,18.05
2018-05-31T17:59:19.746Z,18.58
2018-05-31T18:01:47.516Z,19.25
2018-05-31T18:04:15.041Z,18.60
2018-05-31T18:06:42.566Z,18.92
2018-05-31T18:09:10.082Z,20.12
2018-05-31T18:11:38.555Z,19.58
2018-05-31T18:14:06.108Z,21.52
2018-05-31T18:16:33.699Z,19.27
2018-05-31T18:19:02.028Z,21.00
2018-05-31T18:21:29.555Z,21.40
2018-05-31T18:23:58.718Z,20.95
2018-05-31T18:26:26.287Z,22.40
2018-05-31T18:28:54.899Z,22.48
2018-05-31T18:31:22.531Z,22.90
2018-05-31T18:33:52.175Z,23.70
2018-05-31T18:36:20.442Z,22.08
2018-05-31T18:38:49.519Z,22.85
2018-05-31T18:41:17.088Z,22.75
2018-05-31T18:43:44.615Z,24.12
2018-05-31T18:46:13.384Z,25.30
2018-05-31T18:48:41.817Z,24.12
2018-05-31T18:51:09.345Z,25.33
2018-05-31T18:53:37.219Z,24.37
2018-05-31T18:56:04.744Z,26.30
2018-05-31T18:58:32.269Z,26.33
2018-05-31T19:00:59.796Z,25.95
2018-05-31T19:03:28.082Z,26.87
2018-05-31T19:05:55.635Z,26.52
2018-05-31T19:08:23.159Z,24.95
2018-05-31T19:10:50.780Z,26.02
2018-05-31T19:13:23.968Z,25.88
2018-05-31T19:15:53.036Z,27.35
2018-05-31T19:18:26.564Z,29.05
2018-05-31T19:20:55.283Z,27.20
2018-05-31T19:23:23.615Z,27.02
2018-05-31T19:25:51.183Z,28.02
2018-05-31T19:28:19.923Z,29.02
2018-05-31T19:30:53.044Z,27.90
2018-05-31T19:33:22.968Z,28.15
2018-05-31T19:35:56.520Z,28.38
2018-05-31T19:38:25.111Z,27.83
2018-05-31T19:40:53.948Z,29.10
2018-05-31T19:43:28.771Z,31.08
2018-05-31T19:46:00.033Z,30.80
2018-05-31T19:48:28.972Z,30.55
2018-05-31T19:50:57.606Z,31.67
2018-05-31T19:53:32.331Z,29.00
2018-05-31T19:56:01.104Z,29.92
2018-05-31T19:58:34.526Z,30.83
2018-05-31T20:01:07.720Z,32.35
2018-05-31T20:03:36.059Z,30.85
2018-05-31T20:06:04.068Z,31.87
2018-05-31T20:08:33.672Z,32.22
2018-05-31T20:11:01.427Z,31.08
2018-05-31T20:13:30.091Z,31.58
2018-05-31T20:15:59.035Z,33.50
2018-05-31T20:18:27.324Z,30.50
2018-05-31T20:20:54.926Z,30.83
2018-05-31T20:23:23.258Z,30.80
2018-05-31T20:25:52.304Z,30.20
2018-05-31T20:28:21.437Z,35.63
2018-05-31T20:30:51.078Z,33.30
2018-05-31T20:33:18.595Z,32.35
2018-05-31T20:35:47.180Z,31.87
2018-05-31T20:38:15.696Z,31.08
2018-05-31T20:40:44.700Z,32.40
2018-05-31T20:43:13.498Z,33.42
2018-05-31T20:45:41.142Z,36.88
2018-05-31T20:48:08.815Z,34.15
2018-05-31T20:50:37.285Z,33.25
2018-05-31T20:53:05.969Z,34.60
2018-05-31T20:55:33.546Z,34.85
2018-05-31T20:58:01.067Z,33.03
2018-05-31T21:00:30.422Z,32.45
2018-05-31T21:02:57.947Z,36.42
2018-05-31T21:05:26.286Z,34.03
2018-05-31T21:07:54.631Z,34.33
2018-05-31T21:10:22.214Z,34.67
2018-05-31T21:12:50.341Z,35.22
2018-05-31T21:15:18.889Z,36.65
2018-05-31T21:17:47.339Z,34.80
2018-05-31T21:20:14.928Z,36.42
2018-05-31T21:22:43.345Z,38.53
2018-05-31T21:25:11.819Z,36.72
2018-05-31T21:27:40.148Z,41.08
2018-05-31T21:30:09.207Z,39.97
2018-05-31T21:32:37.380Z,38.40
2018-05-31T21:35:05.954Z,38.28
2018-05-31T21:37:34.976Z,39.88
2018-05-31T21:40:02.556Z,40.42
2018-05-31T21:42:30.366Z,46.55
2018-05-31T21:44:59.053Z,42.30
2018-05-31T21:47:28.159Z,42.40
2018-05-31T21:49:56.035Z,42.30
2018-05-31T21:52:25.261Z,42.47
2018-05-31T21:54:54.104Z,41.92
2018-05-31T21:57:23.513Z,42.80
2018-05-31T21:59:52.759Z,46.80
2018-05-31T22:02:21.916Z,45.97
2018-05-31T22:04:50.343Z,47.15
2018-05-31T22:07:18.652Z,50.10
2018-05-31T22:09:46.178Z,46.70
2018-05-31T22:12:13.712Z,42.60
2018-05-31T22:14:42.686Z,41.90
2018-05-31T22:17:11.999Z,38.22
2018-05-31T22:19:40.739Z,37.45
2018-05-31T22:22:10.028Z,43.80
2018-05-31T22:24:37.557Z,46.40
2018-05-31T22:27:05.668Z,47.47
2018-05-31T22:29:33.640Z,47.88
2018-05-31T22:32:01.221Z,49.40
2018-05-31T22:34:29.922Z,44.47
2018-05-31T22:36:58.122Z,47.67
2018-05-31T22:39:25.956Z,51.33
2018-05-31T22:41:53.584Z,47.85
2018-05-31T22:44:22.596Z,48.13
2018-05-31T22:46:50.208Z,51.15
2018-05-31T22:49:19.054Z,52.88
2018-05-31T22:51:48.094Z,45.12
2018-05-31T22:54:16.432Z,44.92
2018-05-31T22:56:44.063Z,43.80
2018-05-31T22:59:11.709Z,46.25
2018-05-31T23:01:40.068Z,42.78
2018-05-31T23:04:07.908Z,45.63
2018-05-31T23:06:35.811Z,46.08
2018-05-31T23:09:04.871Z,46.40
2018-05-31T23:11:32.455Z,44.15
2018-05-31T23:14:01.992Z,48.33
2018-05-31T23:16:29.875Z,50.67
2018-05-31T23:18:57.525Z,50.25
2018-05-31T23:21:26.687Z,48.83
2018-05-31T23:23:54.351Z,51.03
2018-05-31T23:26:22.807Z,48.63
2018-05-31T23:28:51.100Z,46.63
2018-05-31T23:31:19.317Z,48.85
2018-05-31T23:33:46.883Z,48.00
2018-05-31T23:36:15.290Z,47.22
2018-05-31T23:38:42.955Z,50.42
2018-05-31T23:41:10.544Z,47.65
2018-05-31T23:43:38.955Z,49.60
2018-05-31T23:46:08.120Z,48.55
2018-05-31T23:48:35.872Z,54.10
2018-05-31T23:51:03.435Z,48.63
2018-05-31T23:53:32.031Z,49.15
2018-05-31T23:55:59.590Z,51.47
2018-05-31T23:58:27.203Z,49.08
